sensor_id;sensor_type;location;lat;lon;timestamp;P1;durP1;ratioP1;P2;durP2;ratioP2
50739;SDS011;36704;52.524;17.580;2022-11-21T00:12:55;109.05;;;37.45;;
50739;SDS011;36704;52.524;17.580;2022-11-21T00:15:42;96.47;;;35.63;;
50739;SDS011;36704;52.524;17.580;2022-11-21T00:18:29;106.63;;;36.88;;
50739;SDS011;36704;52.524;17.580;2022-11-21T00:21:16;109.88;;;36.55;;
50739;SDS011;36704;52.524;17.580;2022-11-21T00:24:04;121.90;;;38.78;;
50739;SDS011;36704;52.524;17.580;2022-11-21T00:26:51;85.40;;;35.17;;
50739;SDS011;36704;52.524;17.580;2022-11-21T00:29:37;81.10;;;30.73;;
50739;SDS011;36704;52.524;17.580;2022-11-21T00:32:24;70.78;;;29.85;;
50739;SDS011;36704;52.524;17.580;2022-11-21T00:35:14;67.15;;;26.83;;
50739;SDS011;36704;52.524;17.580;2022-11-21T00:38:01;62.63;;;26.52;;
50739;SDS011;36704;52.524;17.580;2022-11-21T00:40:48;61.80;;;25.38;;
50739;SDS011;36704;52.524;17.580;2022-11-21T00:43:35;70.68;;;28.15;;
50739;SDS011;36704;52.524;17.580;2022-11-21T00:46:22;70.30;;;27.95;;
50739;SDS011;36704;52.524;17.580;2022-11-21T00:49:09;71.28;;;28.05;;
50739;SDS011;36704;52.524;17.580;2022-11-21T00:51:56;78.78;;;28.38;;
50739;SDS011;36704;52.524;17.580;2022-11-21T00:54:42;81.93;;;30.83;;
50739;SDS011;36704;52.524;17.580;2022-11-21T00:57:29;82.40;;;32.35;;
50739;SDS011;36704;52.524;17.580;2022-11-21T01:00:16;76.95;;;29.20;;
50739;SDS011;36704;52.524;17.580;2022-11-21T01:03:03;67.40;;;25.63;;
50739;SDS011;36704;52.524;17.580;2022-11-21T01:05:49;58.60;;;24.88;;
50739;SDS011;36704;52.524;17.580;2022-11-21T01:08:37;75.18;;;27.58;;
50739;SDS011;36704;52.524;17.580;2022-11-21T01:11:25;67.95;;;27.25;;
50739;SDS011;36704;52.524;17.580;2022-11-21T01:14:11;70.00;;;28.15;;
50739;SDS011;36704;52.524;17.580;2022-11-21T01:16:58;61.90;;;27.55;;
50739;SDS011;36704;52.524;17.580;2022-11-21T01:19:45;68.80;;;29.27;;
50739;SDS011;36704;52.524;17.580;2022-11-21T01:22:31;71.13;;;28.70;;
50739;SDS011;36704;52.524;17.580;2022-11-21T01:25:18;60.78;;;26.75;;
50739;SDS011;36704;52.524;17.580;2022-11-21T01:28:05;57.05;;;24.98;;
50739;SDS011;36704;52.524;17.580;2022-11-21T01:30:51;60.05;;;26.00;;
50739;SDS011;36704;52.524;17.580;2022-11-21T01:33:38;62.08;;;26.52;;
50739;SDS011;36704;52.524;17.580;2022-11-21T01:36:26;66.60;;;27.92;;
50739;SDS011;36704;52.524;17.580;2022-11-21T01:39:14;65.15;;;27.05;;
50739;SDS011;36704;52.524;17.580;2022-11-21T01:42:01;65.03;;;27.20;;
50739;SDS011;36704;52.524;17.580;2022-11-21T01:47:44;60.95;;;25.65;;
50739;SDS011;36704;52.524;17.580;2022-11-21T01:50:31;66.45;;;27.40;;
50739;SDS011;36704;52.524;17.580;2022-11-21T01:53:17;62.75;;;29.65;;
50739;SDS011;36704;52.524;17.580;2022-11-21T01:56:04;70.15;;;27.58;;
50739;SDS011;36704;52.524;17.580;2022-11-21T01:58:52;75.05;;;28.77;;
50739;SDS011;36704;52.524;17.580;2022-11-21T02:01:41;69.90;;;28.00;;
50739;SDS011;36704;52.524;17.580;2022-11-21T02:04:29;68.05;;;27.55;;
50739;SDS011;36704;52.524;17.580;2022-11-21T02:07:17;61.65;;;28.23;;
50739;SDS011;36704;52.524;17.580;2022-11-21T02:10:05;66.65;;;27.48;;
50739;SDS011;36704;52.524;17.580;2022-11-21T02:12:55;80.10;;;29.95;;
50739;SDS011;36704;52.524;17.580;2022-11-21T02:15:44;70.05;;;28.85;;
50739;SDS011;36704;52.524;17.580;2022-11-21T02:18:31;79.10;;;28.95;;
50739;SDS011;36704;52.524;17.580;2022-11-21T02:21:42;74.90;;;29.58;;
50739;SDS011;36704;52.524;17.580;2022-11-21T02:27:44;60.95;;;25.38;;
50739;SDS011;36704;52.524;17.580;2022-11-21T02:30:32;68.95;;;28.27;;
50739;SDS011;36704;52.524;17.580;2022-11-21T02:33:25;68.57;;;28.17;;
50739;SDS011;36704;52.524;17.580;2022-11-21T02:39:25;75.95;;;28.02;;
50739;SDS011;36704;52.524;17.580;2022-11-21T02:42:16;74.40;;;28.65;;
50739;SDS011;36704;52.524;17.580;2022-11-21T02:45:08;72.85;;;28.90;;
50739;SDS011;36704;52.524;17.580;2022-11-21T02:48:01;66.57;;;26.13;;
50739;SDS011;36704;52.524;17.580;2022-11-21T02:50:49;66.10;;;27.35;;
50739;SDS011;36704;52.524;17.580;2022-11-21T02:53:36;72.57;;;28.33;;
50739;SDS011;36704;52.524;17.580;2022-11-21T02:56:22;69.20;;;26.38;;
50739;SDS011;36704;52.524;17.580;2022-11-21T02:59:10;63.67;;;26.15;;
50739;SDS011;36704;52.524;17.580;2022-11-21T03:01:56;59.63;;;24.60;;
50739;SDS011;36704;52.524;17.580;2022-11-21T03:04:44;58.50;;;25.45;;
50739;SDS011;36704;52.524;17.580;2022-11-21T03:07:31;58.53;;;27.30;;
50739;SDS011;36704;52.524;17.580;2022-11-21T03:10:18;59.80;;;25.98;;
50739;SDS011;36704;52.524;17.580;2022-11-21T03:13:05;68.50;;;27.88;;
50739;SDS011;36704;52.524;17.580;2022-11-21T03:15:53;66.78;;;26.85;;
50739;SDS011;36704;52.524;17.580;2022-11-21T03:18:40;58.92;;;25.35;;
50739;SDS011;36704;52.524;17.580;2022-11-21T03:21:27;67.30;;;27.77;;
50739;SDS011;36704;52.524;17.580;2022-11-21T03:24:13;57.67;;;24.58;;
50739;SDS011;36704;52.524;17.580;2022-11-21T03:27:00;68.80;;;26.58;;
50739;SDS011;36704;52.524;17.580;2022-11-21T03:29:46;70.63;;;27.42;;
50739;SDS011;36704;52.524;17.580;2022-11-21T03:32:33;69.22;;;28.27;;
50739;SDS011;36704;52.524;17.580;2022-11-21T03:35:20;59.72;;;25.02;;
50739;SDS011;36704;52.524;17.580;2022-11-21T03:38:07;58.20;;;24.83;;
50739;SDS011;36704;52.524;17.580;2022-11-21T03:40:53;87.88;;;29.63;;
50739;SDS011;36704;52.524;17.580;2022-11-21T03:43:40;79.40;;;29.70;;
50739;SDS011;36704;52.524;17.580;2022-11-21T03:46:28;89.95;;;32.25;;
50739;SDS011;36704;52.524;17.580;2022-11-21T03:49:15;80.70;;;31.23;;
50739;SDS011;36704;52.524;17.580;2022-11-21T03:52:02;108.07;;;38.42;;
50739;SDS011;36704;52.524;17.580;2022-11-21T03:54:49;129.38;;;41.22;;
50739;SDS011;36704;52.524;17.580;2022-11-21T03:57:35;130.77;;;40.67;;
50739;SDS011;36704;52.524;17.580;2022-11-21T04:00:22;144.75;;;43.80;;
50739;SDS011;36704;52.524;17.580;2022-11-21T04:03:08;110.13;;;38.10;;
50739;SDS011;36704;52.524;17.580;2022-11-21T04:05:55;103.40;;;34.80;;
50739;SDS011;36704;52.524;17.580;2022-11-21T04:08:42;102.72;;;34.92;;
50739;SDS011;36704;52.524;17.580;2022-11-21T04:11:29;82.43;;;31.27;;
50739;SDS011;36704;52.524;17.580;2022-11-21T04:14:15;88.88;;;33.08;;
50739;SDS011;36704;52.524;17.580;2022-11-21T04:17:03;80.95;;;30.45;;
50739;SDS011;36704;52.524;17.580;2022-11-21T04:19:50;71.60;;;27.02;;
50739;SDS011;36704;52.524;17.580;2022-11-21T04:22:37;65.80;;;26.77;;
50739;SDS011;36704;52.524;17.580;2022-11-21T04:25:23;77.80;;;32.08;;
50739;SDS011;36704;52.524;17.580;2022-11-21T04:28:11;68.20;;;30.88;;
50739;SDS011;36704;52.524;17.580;2022-11-21T04:31:02;68.35;;;28.33;;
50739;SDS011;36704;52.524;17.580;2022-11-21T04:33:55;58.10;;;25.55;;
50739;SDS011;36704;52.524;17.580;2022-11-21T04:36:42;53.20;;;24.58;;
50739;SDS011;36704;52.524;17.580;2022-11-21T04:39:29;52.53;;;22.35;;
50739;SDS011;36704;52.524;17.580;2022-11-21T04:42:16;54.75;;;24.27;;
50739;SDS011;36704;52.524;17.580;2022-11-21T04:45:03;56.10;;;25.25;;
50739;SDS011;36704;52.524;17.580;2022-11-21T04:47:49;56.90;;;23.50;;
50739;SDS011;36704;52.524;17.580;2022-11-21T04:50:39;53.60;;;24.83;;
50739;SDS011;36704;52.524;17.580;2022-11-21T04:53:25;52.45;;;23.35;;
50739;SDS011;36704;52.524;17.580;2022-11-21T04:56:12;48.00;;;21.63;;
50739;SDS011;36704;52.524;17.580;2022-11-21T04:59:01;51.58;;;23.85;;
50739;SDS011;36704;52.524;17.580;2022-11-21T05:01:48;49.75;;;22.60;;
50739;SDS011;36704;52.524;17.580;2022-11-21T05:04:35;52.15;;;23.48;;
50739;SDS011;36704;52.524;17.580;2022-11-21T05:07:22;54.40;;;22.70;;
50739;SDS011;36704;52.524;17.580;2022-11-21T05:10:08;55.60;;;23.15;;
50739;SDS011;36704;52.524;17.580;2022-11-21T05:12:56;52.33;;;21.80;;
50739;SDS011;36704;52.524;17.580;2022-11-21T05:16:02;46.83;;;20.48;;
50739;SDS011;36704;52.524;17.580;2022-11-21T05:18:49;46.10;;;22.52;;
50739;SDS011;36704;52.524;17.580;2022-11-21T05:21:36;52.22;;;22.13;;
50739;SDS011;36704;52.524;17.580;2022-11-21T05:24:23;51.45;;;23.05;;
50739;SDS011;36704;52.524;17.580;2022-11-21T05:27:10;50.55;;;21.38;;
50739;SDS011;36704;52.524;17.580;2022-11-21T05:29:57;53.47;;;23.35;;
50739;SDS011;36704;52.524;17.580;2022-11-21T05:32:43;55.55;;;23.80;;
50739;SDS011;36704;52.524;17.580;2022-11-21T05:35:30;93.70;;;36.35;;
50739;SDS011;36704;52.524;17.580;2022-11-21T05:38:17;112.90;;;40.55;;
50739;SDS011;36704;52.524;17.580;2022-11-21T05:41:04;97.03;;;39.45;;
50739;SDS011;36704;52.524;17.580;2022-11-21T05:43:51;82.03;;;34.53;;
50739;SDS011;36704;52.524;17.580;2022-11-21T05:46:38;76.38;;;30.98;;
50739;SDS011;36704;52.524;17.580;2022-11-21T05:49:24;72.63;;;29.35;;
50739;SDS011;36704;52.524;17.580;2022-11-21T05:52:11;68.85;;;29.48;;
50739;SDS011;36704;52.524;17.580;2022-11-21T05:54:57;66.68;;;28.35;;
50739;SDS011;36704;52.524;17.580;2022-11-21T05:57:44;74.28;;;30.20;;
50739;SDS011;36704;52.524;17.580;2022-11-21T06:00:33;72.70;;;29.75;;
50739;SDS011;36704;52.524;17.580;2022-11-21T06:03:20;59.70;;;27.73;;
50739;SDS011;36704;52.524;17.580;2022-11-21T06:06:14;58.88;;;26.40;;
50739;SDS011;36704;52.524;17.580;2022-11-21T06:09:12;56.25;;;24.50;;
50739;SDS011;36704;52.524;17.580;2022-11-21T06:11:58;58.97;;;25.08;;
50739;SDS011;36704;52.524;17.580;2022-11-21T06:14:45;54.10;;;24.65;;
50739;SDS011;36704;52.524;17.580;2022-11-21T06:17:31;59.78;;;27.88;;
50739;SDS011;36704;52.524;17.580;2022-11-21T06:20:18;60.15;;;28.38;;
50739;SDS011;36704;52.524;17.580;2022-11-21T06:23:04;59.78;;;26.98;;
50739;SDS011;36704;52.524;17.580;2022-11-21T06:25:55;68.65;;;29.63;;
50739;SDS011;36704;52.524;17.580;2022-11-21T06:28:43;72.00;;;31.33;;
50739;SDS011;36704;52.524;17.580;2022-11-21T06:31:30;66.00;;;31.23;;
50739;SDS011;36704;52.524;17.580;2022-11-21T06:34:16;76.00;;;31.13;;
50739;SDS011;36704;52.524;17.580;2022-11-21T06:37:03;74.38;;;29.67;;
50739;SDS011;36704;52.524;17.580;2022-11-21T06:39:50;107.20;;;44.10;;
50739;SDS011;36704;52.524;17.580;2022-11-21T06:42:37;82.63;;;31.83;;
50739;SDS011;36704;52.524;17.580;2022-11-21T06:45:23;71.45;;;29.30;;
50739;SDS011;36704;52.524;17.580;2022-11-21T06:48:10;58.85;;;25.33;;
50739;SDS011;36704;52.524;17.580;2022-11-21T06:50:56;57.88;;;24.80;;
50739;SDS011;36704;52.524;17.580;2022-11-21T06:53:43;60.75;;;25.70;;
50739;SDS011;36704;52.524;17.580;2022-11-21T06:56:30;57.67;;;23.60;;
50739;SDS011;36704;52.524;17.580;2022-11-21T06:59:17;49.22;;;24.15;;
50739;SDS011;36704;52.524;17.580;2022-11-21T07:02:04;60.42;;;24.92;;
50739;SDS011;36704;52.524;17.580;2022-11-21T07:04:51;59.05;;;24.85;;
50739;SDS011;36704;52.524;17.580;2022-11-21T07:07:38;55.67;;;25.75;;
50739;SDS011;36704;52.524;17.580;2022-11-21T07:10:25;53.15;;;24.70;;
50739;SDS011;36704;52.524;17.580;2022-11-21T07:13:12;62.13;;;27.35;;
50739;SDS011;36704;52.524;17.580;2022-11-21T07:16:09;80.95;;;34.97;;
50739;SDS011;36704;52.524;17.580;2022-11-21T07:18:59;111.20;;;46.58;;
50739;SDS011;36704;52.524;17.580;2022-11-21T07:21:46;67.32;;;30.10;;
50739;SDS011;36704;52.524;17.580;2022-11-21T07:24:32;63.67;;;28.33;;
50739;SDS011;36704;52.524;17.580;2022-11-21T07:27:19;56.72;;;25.38;;
50739;SDS011;36704;52.524;17.580;2022-11-21T07:30:05;72.90;;;32.15;;
50739;SDS011;36704;52.524;17.580;2022-11-21T07:32:54;76.90;;;33.20;;
50739;SDS011;36704;52.524;17.580;2022-11-21T07:35:41;77.80;;;35.30;;
50739;SDS011;36704;52.524;17.580;2022-11-21T07:38:28;82.50;;;34.75;;
50739;SDS011;36704;52.524;17.580;2022-11-21T07:41:15;73.28;;;32.58;;
50739;SDS011;36704;52.524;17.580;2022-11-21T07:44:02;81.20;;;34.47;;
50739;SDS011;36704;52.524;17.580;2022-11-21T07:46:52;74.28;;;34.95;;
50739;SDS011;36704;52.524;17.580;2022-11-21T07:49:39;71.32;;;32.88;;
50739;SDS011;36704;52.524;17.580;2022-11-21T07:52:26;75.00;;;32.22;;
50739;SDS011;36704;52.524;17.580;2022-11-21T07:55:15;71.85;;;33.03;;
50739;SDS011;36704;52.524;17.580;2022-11-21T07:58:04;78.78;;;33.90;;
50739;SDS011;36704;52.524;17.580;2022-11-21T08:01:02;80.72;;;36.03;;
50739;SDS011;36704;52.524;17.580;2022-11-21T08:09:29;78.30;;;34.88;;
50739;SDS011;36704;52.524;17.580;2022-11-21T08:12:15;71.78;;;34.78;;
50739;SDS011;36704;52.524;17.580;2022-11-21T08:15:02;71.32;;;32.88;;
50739;SDS011;36704;52.524;17.580;2022-11-21T08:17:49;68.97;;;31.30;;
50739;SDS011;36704;52.524;17.580;2022-11-21T08:20:36;66.57;;;31.65;;
50739;SDS011;36704;52.524;17.580;2022-11-21T08:23:23;73.45;;;34.25;;
50739;SDS011;36704;52.524;17.580;2022-11-21T08:26:10;74.85;;;32.10;;
50739;SDS011;36704;52.524;17.580;2022-11-21T08:28:56;68.38;;;30.95;;
50739;SDS011;36704;52.524;17.580;2022-11-21T08:31:46;65.82;;;29.60;;
50739;SDS011;36704;52.524;17.580;2022-11-21T08:34:32;71.30;;;29.48;;
50739;SDS011;36704;52.524;17.580;2022-11-21T08:37:19;81.57;;;36.53;;
50739;SDS011;36704;52.524;17.580;2022-11-21T08:40:06;74.97;;;33.78;;
50739;SDS011;36704;52.524;17.580;2022-11-21T08:45:45;89.47;;;37.03;;
50739;SDS011;36704;52.524;17.580;2022-11-21T08:48:31;76.70;;;33.55;;
50739;SDS011;36704;52.524;17.580;2022-11-21T08:51:18;77.32;;;32.80;;
50739;SDS011;36704;52.524;17.580;2022-11-21T08:54:05;75.40;;;32.53;;
50739;SDS011;36704;52.524;17.580;2022-11-21T08:56:51;76.30;;;32.85;;
50739;SDS011;36704;52.524;17.580;2022-11-21T08:59:38;68.53;;;30.15;;
50739;SDS011;36704;52.524;17.580;2022-11-21T09:02:25;64.75;;;29.10;;
50739;SDS011;36704;52.524;17.580;2022-11-21T09:05:14;74.18;;;30.00;;
50739;SDS011;36704;52.524;17.580;2022-11-21T09:08:00;72.78;;;30.33;;
50739;SDS011;36704;52.524;17.580;2022-11-21T09:10:47;71.63;;;31.45;;
50739;SDS011;36704;52.524;17.580;2022-11-21T09:13:34;84.38;;;33.35;;
50739;SDS011;36704;52.524;17.580;2022-11-21T09:16:21;73.13;;;31.33;;
50739;SDS011;36704;52.524;17.580;2022-11-21T09:19:26;72.38;;;31.15;;
50739;SDS011;36704;52.524;17.580;2022-11-21T09:22:13;90.65;;;40.22;;
50739;SDS011;36704;52.524;17.580;2022-11-21T09:24:59;101.43;;;39.90;;
50739;SDS011;36704;52.524;17.580;2022-11-21T09:27:46;73.05;;;32.45;;
50739;SDS011;36704;52.524;17.580;2022-11-21T09:30:33;70.47;;;31.17;;
50739;SDS011;36704;52.524;17.580;2022-11-21T09:33:22;74.38;;;33.17;;
50739;SDS011;36704;52.524;17.580;2022-11-21T09:36:08;74.90;;;31.85;;
50739;SDS011;36704;52.524;17.580;2022-11-21T09:38:55;71.90;;;29.95;;
50739;SDS011;36704;52.524;17.580;2022-11-21T09:47:54;68.40;;;30.00;;
50739;SDS011;36704;52.524;17.580;2022-11-21T09:50:45;81.45;;;34.70;;
50739;SDS011;36704;52.524;17.580;2022-11-21T09:53:44;70.13;;;32.17;;
50739;SDS011;36704;52.524;17.580;2022-11-21T09:56:41;84.95;;;37.40;;
50739;SDS011;36704;52.524;17.580;2022-11-21T09:59:33;76.30;;;32.83;;
50739;SDS011;36704;52.524;17.580;2022-11-21T10:02:21;67.57;;;30.30;;
50739;SDS011;36704;52.524;17.580;2022-11-21T10:05:38;79.30;;;38.35;;
50739;SDS011;36704;52.524;17.580;2022-11-21T10:15:46;71.32;;;31.30;;
50739;SDS011;36704;52.524;17.580;2022-11-21T10:22:07;75.25;;;32.45;;
50739;SDS011;36704;52.524;17.580;2022-11-21T10:25:07;79.18;;;32.30;;
50739;SDS011;36704;52.524;17.580;2022-11-21T10:30:50;79.90;;;37.03;;
50739;SDS011;36704;52.524;17.580;2022-11-21T10:33:37;119.32;;;50.03;;
50739;SDS011;36704;52.524;17.580;2022-11-21T10:36:35;84.80;;;32.50;;
50739;SDS011;36704;52.524;17.580;2022-11-21T10:39:33;83.07;;;32.00;;
50739;SDS011;36704;52.524;17.580;2022-11-21T10:45:15;83.00;;;33.88;;
50739;SDS011;36704;52.524;17.580;2022-11-21T10:48:02;84.80;;;34.67;;
50739;SDS011;36704;52.524;17.580;2022-11-21T10:54:08;77.70;;;32.55;;
50739;SDS011;36704;52.524;17.580;2022-11-21T10:57:17;86.32;;;34.53;;
50739;SDS011;36704;52.524;17.580;2022-11-21T11:05:54;116.22;;;40.88;;
50739;SDS011;36704;52.524;17.580;2022-11-21T11:08:50;91.80;;;38.35;;
50739;SDS011;36704;52.524;17.580;2022-11-21T11:11:37;106.78;;;43.00;;
50739;SDS011;36704;52.524;17.580;2022-11-21T11:14:29;103.65;;;40.40;;
50739;SDS011;36704;52.524;17.580;2022-11-21T11:17:24;89.53;;;38.72;;
50739;SDS011;36704;52.524;17.580;2022-11-21T11:21:07;86.75;;;37.40;;
50739;SDS011;36704;52.524;17.580;2022-11-21T11:23:26;88.35;;;37.13;;
50739;SDS011;36704;52.524;17.580;2022-11-21T11:26:24;85.95;;;35.15;;
50739;SDS011;36704;52.524;17.580;2022-11-21T11:32:02;78.03;;;33.58;;
50739;SDS011;36704;52.524;17.580;2022-11-21T11:38:08;104.82;;;39.17;;
50739;SDS011;36704;52.524;17.580;2022-11-21T11:40:59;78.10;;;32.60;;
50739;SDS011;36704;52.524;17.580;2022-11-21T11:44:02;79.82;;;31.95;;
50739;SDS011;36704;52.524;17.580;2022-11-21T11:47:19;80.82;;;34.17;;
50739;SDS011;36704;52.524;17.580;2022-11-21T11:50:18;81.50;;;34.75;;
50739;SDS011;36704;52.524;17.580;2022-11-21T11:53:28;181.45;;;66.25;;
50739;SDS011;36704;52.524;17.580;2022-11-21T11:56:21;84.05;;;36.13;;
50739;SDS011;36704;52.524;17.580;2022-11-21T12:02:43;76.18;;;38.67;;
50739;SDS011;36704;52.524;17.580;2022-11-21T12:05:34;84.97;;;36.95;;
50739;SDS011;36704;52.524;17.580;2022-11-21T12:08:25;121.28;;;47.55;;
50739;SDS011;36704;52.524;17.580;2022-11-21T12:21:14;96.03;;;40.40;;
50739;SDS011;36704;52.524;17.580;2022-11-21T12:24:03;152.63;;;55.78;;
50739;SDS011;36704;52.524;17.580;2022-11-21T12:26:53;94.10;;;40.33;;
50739;SDS011;36704;52.524;17.580;2022-11-21T12:33:19;91.13;;;37.53;;
50739;SDS011;36704;52.524;17.580;2022-11-21T12:48:40;173.32;;;58.92;;
50739;SDS011;36704;52.524;17.580;2022-11-21T12:55:38;92.03;;;36.50;;
50739;SDS011;36704;52.524;17.580;2022-11-21T12:58:26;79.60;;;33.70;;
50739;SDS011;36704;52.524;17.580;2022-11-21T13:01:28;96.97;;;37.53;;
50739;SDS011;36704;52.524;17.580;2022-11-21T13:04:27;76.78;;;32.92;;
50739;SDS011;36704;52.524;17.580;2022-11-21T13:07:16;74.38;;;31.98;;
50739;SDS011;36704;52.524;17.580;2022-11-21T13:10:10;125.65;;;49.55;;
50739;SDS011;36704;52.524;17.580;2022-11-21T13:16:06;93.07;;;41.65;;
50739;SDS011;36704;52.524;17.580;2022-11-21T13:18:55;94.93;;;38.90;;
50739;SDS011;36704;52.524;17.580;2022-11-21T13:21:43;88.95;;;35.00;;
50739;SDS011;36704;52.524;17.580;2022-11-21T13:27:36;95.60;;;40.03;;
50739;SDS011;36704;52.524;17.580;2022-11-21T13:30:24;82.75;;;34.63;;
50739;SDS011;36704;52.524;17.580;2022-11-21T13:42:04;261.20;;;107.07;;
50739;SDS011;36704;52.524;17.580;2022-11-21T13:45:44;137.43;;;51.40;;
50739;SDS011;36704;52.524;17.580;2022-11-21T13:57:43;92.28;;;38.08;;
50739;SDS011;36704;52.524;17.580;2022-11-21T14:00:41;91.47;;;37.47;;
50739;SDS011;36704;52.524;17.580;2022-11-21T14:03:45;98.43;;;41.10;;
50739;SDS011;36704;52.524;17.580;2022-11-21T14:06:48;147.40;;;45.03;;
50739;SDS011;36704;52.524;17.580;2022-11-21T14:09:35;100.80;;;40.50;;
50739;SDS011;36704;52.524;17.580;2022-11-21T14:12:33;114.40;;;42.75;;
50739;SDS011;36704;52.524;17.580;2022-11-21T14:18:44;110.25;;;41.30;;
50739;SDS011;36704;52.524;17.580;2022-11-21T14:21:32;97.25;;;40.40;;
50739;SDS011;36704;52.524;17.580;2022-11-21T14:24:19;125.55;;;46.75;;
50739;SDS011;36704;52.524;17.580;2022-11-21T14:27:07;122.65;;;48.30;;
50739;SDS011;36704;52.524;17.580;2022-11-21T14:30:01;121.35;;;48.70;;
50739;SDS011;36704;52.524;17.580;2022-11-21T14:32:48;134.82;;;51.60;;
50739;SDS011;36704;52.524;17.580;2022-11-21T14:35:39;123.18;;;47.78;;
50739;SDS011;36704;52.524;17.580;2022-11-21T14:38:26;118.72;;;46.53;;
50739;SDS011;36704;52.524;17.580;2022-11-21T14:41:34;148.00;;;53.83;;
50739;SDS011;36704;52.524;17.580;2022-11-21T14:44:23;155.27;;;51.78;;
50739;SDS011;36704;52.524;17.580;2022-11-21T14:47:14;135.85;;;48.88;;
50739;SDS011;36704;52.524;17.580;2022-11-21T14:50:21;115.28;;;44.00;;
50739;SDS011;36704;52.524;17.580;2022-11-21T14:53:15;118.15;;;46.03;;
50739;SDS011;36704;52.524;17.580;2022-11-21T14:56:04;126.53;;;47.83;;
50739;SDS011;36704;52.524;17.580;2022-11-21T14:58:51;161.60;;;55.72;;
50739;SDS011;36704;52.524;17.580;2022-11-21T15:01:38;109.10;;;43.35;;
50739;SDS011;36704;52.524;17.580;2022-11-21T15:04:33;125.18;;;46.08;;
50739;SDS011;36704;52.524;17.580;2022-11-21T15:07:25;123.97;;;44.13;;
50739;SDS011;36704;52.524;17.580;2022-11-21T15:10:17;108.50;;;42.63;;
50739;SDS011;36704;52.524;17.580;2022-11-21T15:13:19;127.82;;;45.65;;
50739;SDS011;36704;52.524;17.580;2022-11-21T15:16:12;120.45;;;44.03;;
50739;SDS011;36704;52.524;17.580;2022-11-21T15:19:16;122.40;;;43.97;;
50739;SDS011;36704;52.524;17.580;2022-11-21T15:22:22;116.97;;;46.70;;
50739;SDS011;36704;52.524;17.580;2022-11-21T15:25:20;121.93;;;44.85;;
50739;SDS011;36704;52.524;17.580;2022-11-21T15:28:22;112.28;;;43.47;;
50739;SDS011;36704;52.524;17.580;2022-11-21T15:31:20;127.78;;;45.63;;
50739;SDS011;36704;52.524;17.580;2022-11-21T15:34:10;136.38;;;46.95;;
50739;SDS011;36704;52.524;17.580;2022-11-21T15:37:25;143.75;;;48.58;;
50739;SDS011;36704;52.524;17.580;2022-11-21T15:40:16;147.65;;;52.15;;
50739;SDS011;36704;52.524;17.580;2022-11-21T15:49:38;153.45;;;52.22;;
50739;SDS011;36704;52.524;17.580;2022-11-21T15:52:24;148.25;;;51.40;;
50739;SDS011;36704;52.524;17.580;2022-11-21T15:55:18;132.77;;;46.25;;
50739;SDS011;36704;52.524;17.580;2022-11-21T15:58:17;138.93;;;50.17;;
50739;SDS011;36704;52.524;17.580;2022-11-21T16:01:04;134.85;;;48.70;;
50739;SDS011;36704;52.524;17.580;2022-11-21T16:03:51;127.60;;;47.65;;
50739;SDS011;36704;52.524;17.580;2022-11-21T16:06:40;146.30;;;51.70;;
50739;SDS011;36704;52.524;17.580;2022-11-21T16:09:28;158.60;;;53.88;;
50739;SDS011;36704;52.524;17.580;2022-11-21T16:12:18;150.23;;;52.55;;
50739;SDS011;36704;52.524;17.580;2022-11-21T16:15:07;154.27;;;54.33;;
50739;SDS011;36704;52.524;17.580;2022-11-21T16:17:57;151.35;;;51.55;;
50739;SDS011;36704;52.524;17.580;2022-11-21T16:20:50;132.52;;;49.13;;
50739;SDS011;36704;52.524;17.580;2022-11-21T16:23:37;141.65;;;47.92;;
50739;SDS011;36704;52.524;17.580;2022-11-21T16:26:24;134.38;;;49.05;;
50739;SDS011;36704;52.524;17.580;2022-11-21T16:29:13;139.07;;;46.35;;
50739;SDS011;36704;52.524;17.580;2022-11-21T16:32:00;137.75;;;46.55;;
50739;SDS011;36704;52.524;17.580;2022-11-21T16:34:46;133.40;;;48.13;;
50739;SDS011;36704;52.524;17.580;2022-11-21T16:37:33;145.98;;;50.40;;
50739;SDS011;36704;52.524;17.580;2022-11-21T16:40:20;151.68;;;48.95;;
50739;SDS011;36704;52.524;17.580;2022-11-21T16:43:10;195.05;;;53.33;;
50739;SDS011;36704;52.524;17.580;2022-11-21T16:46:05;167.07;;;52.55;;
50739;SDS011;36704;52.524;17.580;2022-11-21T16:48:58;154.00;;;51.30;;
50739;SDS011;36704;52.524;17.580;2022-11-21T16:51:46;146.80;;;49.35;;
50739;SDS011;36704;52.524;17.580;2022-11-21T16:54:32;150.43;;;49.72;;
50739;SDS011;36704;52.524;17.580;2022-11-21T16:57:19;143.80;;;49.08;;
50739;SDS011;36704;52.524;17.580;2022-11-21T17:00:05;167.10;;;50.50;;
50739;SDS011;36704;52.524;17.580;2022-11-21T17:02:55;143.38;;;47.53;;
50739;SDS011;36704;52.524;17.580;2022-11-21T17:05:43;134.00;;;47.25;;
50739;SDS011;36704;52.524;17.580;2022-11-21T17:08:29;162.43;;;51.22;;
50739;SDS011;36704;52.524;17.580;2022-11-21T17:11:18;158.25;;;51.67;;
50739;SDS011;36704;52.524;17.580;2022-11-21T17:14:09;148.85;;;49.15;;
50739;SDS011;36704;52.524;17.580;2022-11-21T17:16:57;148.90;;;51.35;;
50739;SDS011;36704;52.524;17.580;2022-11-21T17:19:48;149.63;;;48.97;;
50739;SDS011;36704;52.524;17.580;2022-11-21T17:22:35;143.32;;;47.90;;
50739;SDS011;36704;52.524;17.580;2022-11-21T17:25:27;137.65;;;48.05;;
50739;SDS011;36704;52.524;17.580;2022-11-21T17:31:06;150.25;;;47.92;;
50739;SDS011;36704;52.524;17.580;2022-11-21T17:33:55;146.30;;;45.65;;
50739;SDS011;36704;52.524;17.580;2022-11-21T17:36:46;133.30;;;44.85;;
50739;SDS011;36704;52.524;17.580;2022-11-21T17:39:32;145.25;;;44.97;;
50739;SDS011;36704;52.524;17.580;2022-11-21T17:42:19;115.15;;;41.13;;
50739;SDS011;36704;52.524;17.580;2022-11-21T17:45:06;102.70;;;37.15;;
50739;SDS011;36704;52.524;17.580;2022-11-21T17:47:53;111.38;;;39.92;;
50739;SDS011;36704;52.524;17.580;2022-11-21T17:50:39;105.28;;;36.75;;
50739;SDS011;36704;52.524;17.580;2022-11-21T17:53:26;113.07;;;37.15;;
50739;SDS011;36704;52.524;17.580;2022-11-21T17:56:13;106.65;;;36.33;;
50739;SDS011;36704;52.524;17.580;2022-11-21T17:59:05;99.55;;;35.53;;
50739;SDS011;36704;52.524;17.580;2022-11-21T18:01:52;99.93;;;35.83;;
50739;SDS011;36704;52.524;17.580;2022-11-21T18:04:39;124.22;;;43.28;;
50739;SDS011;36704;52.524;17.580;2022-11-21T18:07:25;108.20;;;38.67;;
50739;SDS011;36704;52.524;17.580;2022-11-21T18:10:12;108.20;;;36.95;;
50739;SDS011;36704;52.524;17.580;2022-11-21T18:13:18;106.85;;;38.70;;
50739;SDS011;36704;52.524;17.580;2022-11-21T18:16:09;101.97;;;36.38;;
50739;SDS011;36704;52.524;17.580;2022-11-21T18:18:57;101.45;;;35.35;;
50739;SDS011;36704;52.524;17.580;2022-11-21T18:21:44;105.15;;;34.90;;
50739;SDS011;36704;52.524;17.580;2022-11-21T18:24:31;96.53;;;33.88;;
50739;SDS011;36704;52.524;17.580;2022-11-21T18:27:17;101.45;;;36.15;;
50739;SDS011;36704;52.524;17.580;2022-11-21T18:30:04;103.63;;;36.25;;